createdAt,value
2022-10-24T00:00:25.043Z,98944.69
2022-10-24T00:03:14.803Z,98947.88
2022-10-24T00:05:45.848Z,98947.11
2022-10-24T00:08:17.483Z,98940.83
2022-10-24T00:10:49.245Z,98935.70
2022-10-24T00:13:19.381Z,98926.01
2022-10-24T00:15:50.344Z,98919.08
2022-10-24T00:18:19.173Z,98917.30
2022-10-24T00:20:51.526Z,98903.34
2022-10-24T00:23:20.373Z,98898.73
2022-10-24T00:25:49.966Z,98896.29
2022-10-24T00:28:17.820Z,98901.32
2022-10-24T00:30:45.660Z,98913.77
2022-10-24T00:33:13.440Z,98915.67
2022-10-24T00:35:42.766Z,98917.56
2022-10-24T00:38:11.619Z,98921.45
2022-10-24T00:40:40.057Z,98921.86
2022-10-24T00:43:23.954Z,98917.83
2022-10-24T00:46:00.500Z,98919.67
2022-10-24T00:48:41.923Z,98920.38
2022-10-24T00:51:19.552Z,98923.14
2022-10-24T00:54:06.645Z,98928.36
2022-10-24T00:57:21.187Z,98931.56
2022-10-24T00:59:54.838Z,98925.91
2022-10-24T01:02:24.176Z,98900.05
2022-10-24T01:04:54.730Z,98884.36
2022-10-24T01:07:28.989Z,98863.42
2022-10-24T01:10:24.112Z,98844.09
2022-10-24T01:12:55.266Z,98840.02
2022-10-24T01:15:36.687Z,98846.19
2022-10-24T01:18:07.988Z,98844.47
2022-10-24T01:21:03.224Z,98844.08
2022-10-24T01:23:58.632Z,98843.95
2022-10-24T01:26:56.885Z,98842.83
2022-10-24T01:29:39.978Z,98842.45
2022-10-24T01:32:20.202Z,98838.11
2022-10-24T01:35:05.673Z,98833.11
2022-10-24T01:37:46.564Z,98841.39
2022-10-24T01:40:30.671Z,98847.41
2022-10-24T01:43:01.999Z,98845.96
2022-10-24T01:45:35.027Z,98846.35
2022-10-24T01:48:07.597Z,98845.77
2022-10-24T01:50:38.530Z,98847.27
2022-10-24T01:53:08.272Z,98847.80
2022-10-24T01:55:38.291Z,98836.49
2022-10-24T01:58:08.055Z,98839.64
2022-10-24T02:00:38.750Z,98839.61
2022-10-24T02:03:21.249Z,98841.50
2022-10-24T02:05:57.459Z,98832.84
2022-10-24T02:08:30.428Z,98839.80
2022-10-24T02:11:03.895Z,98845.56
2022-10-24T02:13:51.204Z,98844.06
2022-10-24T02:16:21.011Z,98842.30
2022-10-24T02:18:54.590Z,98837.38
2022-10-24T02:21:22.207Z,98833.89
2022-10-24T02:24:01.577Z,98841.71
2022-10-24T02:26:35.335Z,98841.85
2022-10-24T02:29:11.684Z,98842.83
2022-10-24T02:31:45.341Z,98837.45
2022-10-24T02:34:13.669Z,98831.61
2022-10-24T02:36:45.804Z,98833.73
2022-10-24T02:39:14.927Z,98838.06
2022-10-24T02:41:45.540Z,98837.13
2022-10-24T02:44:16.717Z,98837.10
2022-10-24T02:46:46.491Z,98837.65
2022-10-24T02:49:16.606Z,98836.59
2022-10-24T02:51:47.061Z,98837.07
2022-10-24T02:54:14.903Z,98832.61
2022-10-24T02:56:49.613Z,98832.59
2022-10-24T02:59:17.372Z,98828.70
2022-10-24T03:01:45.272Z,98819.62
2022-10-24T03:04:13.035Z,98805.77
2022-10-24T03:06:41.221Z,98803.29
2022-10-24T03:09:09.345Z,98803.49
2022-10-24T03:11:37.656Z,98809.54
2022-10-24T03:14:06.267Z,98821.41
2022-10-24T03:16:34.125Z,98820.04
2022-10-24T03:19:02.286Z,98816.56
2022-10-24T03:21:31.954Z,98815.55
2022-10-24T03:24:00.233Z,98806.11
2022-10-24T03:26:28.350Z,98808.29
2022-10-24T03:28:57.022Z,98813.30
2022-10-24T03:31:27.968Z,98812.21
2022-10-24T03:33:56.452Z,98811.58
2022-10-24T03:36:24.931Z,98804.93
2022-10-24T03:38:53.002Z,98797.59
2022-10-24T03:41:26.164Z,98790.57
2022-10-24T03:44:00.408Z,98789.77
2022-10-24T03:46:28.150Z,98780.30
2022-10-24T03:48:56.001Z,98784.08
2022-10-24T03:51:23.781Z,98785.44
2022-10-24T03:53:54.652Z,98791.02
2022-10-24T03:56:23.252Z,98787.41
2022-10-24T03:58:51.429Z,98791.42
2022-10-24T04:01:19.812Z,98791.61
2022-10-24T04:03:47.965Z,98796.92
2022-10-24T04:06:15.798Z,98795.81
2022-10-24T04:08:43.620Z,98788.23
2022-10-24T04:11:12.161Z,98788.17
2022-10-24T04:13:40.822Z,98783.56
2022-10-24T04:16:11.497Z,98784.39
2022-10-24T04:18:39.675Z,98794.36
2022-10-24T04:21:07.424Z,98800.73
2022-10-24T04:23:41.036Z,98795.88
2022-10-24T04:26:09.831Z,98799.71
2022-10-24T04:28:37.540Z,98803.89
2022-10-24T04:31:06.852Z,98810.59
2022-10-24T04:33:36.465Z,98814.76
2022-10-24T04:36:07.341Z,98819.80
2022-10-24T04:38:36.642Z,98825.27
2022-10-24T04:41:07.261Z,98828.95
2022-10-24T04:43:37.757Z,98828.02
2022-10-24T04:46:05.665Z,98823.23
2022-10-24T04:48:33.481Z,98821.17
2022-10-24T04:51:01.785Z,98823.70
2022-10-24T04:53:30.266Z,98827.96
2022-10-24T04:55:58.452Z,98823.42
2022-10-24T04:58:26.206Z,98821.01
2022-10-24T05:01:01.428Z,98819.61
2022-10-24T05:03:29.788Z,98821.70
2022-10-24T05:05:57.580Z,98820.70
2022-10-24T05:08:25.353Z,98825.89
2022-10-24T05:10:53.480Z,98828.08
2022-10-24T05:13:21.913Z,98824.73
2022-10-24T05:15:49.614Z,98819.48
2022-10-24T05:18:17.677Z,98819.48
2022-10-24T05:20:45.477Z,98815.61
2022-10-24T05:23:13.376Z,98815.50
2022-10-24T05:25:41.170Z,98813.59
2022-10-24T05:28:08.916Z,98819.44
2022-10-24T05:30:36.620Z,98819.28
2022-10-24T05:33:04.429Z,98817.45
2022-10-24T05:35:32.162Z,98816.91
2022-10-24T05:37:59.889Z,98826.13
2022-10-24T05:40:27.773Z,98828.34
2022-10-24T05:42:56.409Z,98835.27
2022-10-24T05:45:25.332Z,98839.73
2022-10-24T05:47:53.092Z,98841.09
2022-10-24T05:50:21.206Z,98841.23
2022-10-24T05:52:49.260Z,98844.86
2022-10-24T05:55:18.470Z,98843.50
2022-10-24T05:57:47.583Z,98843.79
2022-10-24T06:00:17.743Z,98840.00
2022-10-24T06:05:20.012Z,98842.85
2022-10-24T06:07:48.805Z,98847.88
2022-10-24T06:10:17.311Z,98853.08
2022-10-24T06:12:45.470Z,98852.28
2022-10-24T06:15:15.272Z,98856.79
2022-10-24T06:17:43.248Z,98858.94
2022-10-24T06:20:11.982Z,98858.31
2022-10-24T06:22:39.997Z,98859.94
2022-10-24T06:25:08.215Z,98862.56
2022-10-24T06:27:36.030Z,98860.13
2022-10-24T06:30:06.348Z,98860.86
2022-10-24T06:32:38.584Z,98866.20
2022-10-24T06:35:11.880Z,98867.05
2022-10-24T06:37:42.921Z,98874.41
2022-10-24T06:40:14.520Z,98875.23
2022-10-24T06:42:42.720Z,98877.42
2022-10-24T06:45:11.043Z,98882.15
2022-10-24T06:47:39.208Z,98879.92
2022-10-24T06:50:07.691Z,98888.56
2022-10-24T06:52:36.937Z,98891.45
2022-10-24T06:55:06.434Z,98893.20
2022-10-24T06:57:35.406Z,98887.18
2022-10-24T07:00:05.579Z,98881.89
2022-10-24T07:02:34.061Z,98881.30
2022-10-24T07:05:03.919Z,98884.69
2022-10-24T07:07:34.605Z,98887.30
2022-10-24T07:10:02.407Z,98890.42
2022-10-24T07:12:30.591Z,98888.59
2022-10-24T07:14:59.041Z,98887.36
2022-10-24T07:17:27.704Z,98889.45
2022-10-24T07:19:56.961Z,98891.36
2022-10-24T07:22:24.780Z,98892.74
2022-10-24T07:24:54.859Z,98894.16
2022-10-24T07:27:23.225Z,98898.29
2022-10-24T07:29:51.781Z,98894.02
2022-10-24T07:32:21.139Z,98893.09
2022-10-24T07:34:49.070Z,98889.41
2022-10-24T07:37:18.649Z,98891.50
2022-10-24T07:39:46.817Z,98894.39
2022-10-24T07:42:16.058Z,98892.58
2022-10-24T07:44:46.957Z,98893.53
2022-10-24T07:47:16.858Z,98894.69
2022-10-24T07:49:45.292Z,98893.43
2022-10-24T07:52:13.765Z,98896.45
2022-10-24T07:54:42.782Z,98890.54
2022-10-24T07:57:11.933Z,98888.54
2022-10-24T07:59:42.453Z,98881.30
2022-10-24T08:02:25.270Z,98880.34
2022-10-24T08:05:06.293Z,98877.64
2022-10-24T08:07:38.683Z,98881.64
2022-10-24T08:10:09.427Z,98881.50
2022-10-24T08:12:44.475Z,98887.17
2022-10-24T08:15:12.776Z,98886.06
2022-10-24T08:17:42.034Z,98883.21
2022-10-24T08:20:10.654Z,98880.33
2022-10-24T08:22:38.795Z,98877.56
2022-10-24T08:25:09.872Z,98880.84
2022-10-24T08:27:39.410Z,98885.92
2022-10-24T08:30:12.602Z,98882.67
2022-10-24T08:32:41.705Z,98882.57
2022-10-24T08:35:10.512Z,98882.27
2022-10-24T08:37:41.400Z,98885.23
2022-10-24T08:40:15.671Z,98880.20
2022-10-24T08:42:44.744Z,98885.32
2022-10-24T08:45:19.743Z,98881.89
2022-10-24T08:47:57.217Z,98879.75
2022-10-24T08:50:30.629Z,98874.72
2022-10-24T08:53:15.750Z,98877.13
2022-10-24T08:55:50.342Z,98875.95
2022-10-24T08:58:26.697Z,98875.33
2022-10-24T09:00:58.032Z,98875.58
2022-10-24T09:06:28.746Z,98875.94
2022-10-24T09:09:09.826Z,98882.14
2022-10-24T09:12:03.339Z,98882.02
2022-10-24T09:14:33.992Z,98881.77
2022-10-24T09:17:22.582Z,98885.45
2022-10-24T09:20:20.392Z,98887.23
2022-10-24T09:22:48.697Z,98887.23
2022-10-24T09:25:21.228Z,98890.83
2022-10-24T09:27:50.230Z,98891.42
2022-10-24T09:30:22.429Z,98894.52
2022-10-24T09:32:51.278Z,98897.54
2022-10-24T09:35:25.729Z,98898.42
2022-10-24T09:37:58.999Z,98893.71
2022-10-24T09:40:34.704Z,98896.50
2022-10-24T09:43:18.221Z,98899.29
2022-10-24T09:45:51.313Z,98897.80
2022-10-24T09:48:29.459Z,98894.89
2022-10-24T09:51:00.417Z,98887.19
2022-10-24T09:53:36.268Z,98883.23
2022-10-24T09:56:13.332Z,98884.04
2022-10-24T09:58:43.570Z,98883.70
2022-10-24T10:01:17.495Z,98882.48
2022-10-24T10:04:08.809Z,98881.60
2022-10-24T10:06:44.867Z,98877.64
2022-10-24T10:09:24.000Z,98872.20
2022-10-24T10:12:02.606Z,98869.77
2022-10-24T10:14:32.665Z,98875.90
2022-10-24T10:17:05.241Z,98876.65
2022-10-24T10:19:37.793Z,98880.69
2022-10-24T10:22:26.549Z,98883.73
2022-10-24T10:24:56.501Z,98889.45
2022-10-24T10:27:41.315Z,98888.94
2022-10-24T10:30:35.187Z,98891.70
2022-10-24T10:36:20.149Z,98887.73
2022-10-24T10:39:24.775Z,98886.65
2022-10-24T10:42:21.990Z,98882.86
2022-10-24T10:45:34.445Z,98886.14
2022-10-24T10:48:39.374Z,98876.53
2022-10-24T10:51:16.714Z,98869.55
2022-10-24T10:54:42.713Z,98863.98
2022-10-24T10:57:37.147Z,98863.66
2022-10-24T11:00:15.661Z,98864.38
2022-10-24T11:03:06.219Z,98863.09
2022-10-24T11:05:53.615Z,98859.85
2022-10-24T11:08:41.091Z,98853.41
2022-10-24T11:11:22.724Z,98846.08
2022-10-24T11:14:17.871Z,98841.64
2022-10-24T11:16:46.838Z,98844.02
2022-10-24T11:19:30.067Z,98841.67
2022-10-24T11:22:03.437Z,98837.09
2022-10-24T11:24:35.692Z,98833.45
2022-10-24T11:27:21.740Z,98829.40
2022-10-24T11:30:19.555Z,98826.23
2022-10-24T11:32:52.761Z,98822.95
2022-10-24T11:35:24.453Z,98822.58
2022-10-24T11:37:59.369Z,98821.75
2022-10-24T11:40:30.511Z,98817.73
2022-10-24T11:43:10.980Z,98817.98
2022-10-24T11:46:02.726Z,98817.94
2022-10-24T11:51:28.146Z,98811.36
2022-10-24T11:54:12.308Z,98808.66
2022-10-24T11:56:51.672Z,98808.33
2022-10-24T11:59:26.335Z,98803.59
2022-10-24T12:01:57.673Z,98796.27
2022-10-24T12:05:11.217Z,98790.89
2022-10-24T12:08:05.088Z,98792.45
2022-10-24T12:10:45.199Z,98799.18
2022-10-24T12:13:31.417Z,98798.80
2022-10-24T12:16:15.792Z,98793.44
2022-10-24T12:18:47.839Z,98788.70
2022-10-24T12:21:24.762Z,98790.21
2022-10-24T12:24:00.291Z,98786.02
2022-10-24T12:26:34.357Z,98779.05
2022-10-24T12:29:05.954Z,98774.89
2022-10-24T12:31:37.421Z,98770.58
2022-10-24T12:34:22.893Z,98768.70
2022-10-24T12:37:30.929Z,98767.49
2022-10-24T12:39:59.188Z,98766.53
2022-10-24T12:42:26.981Z,98760.86
2022-10-24T12:45:00.946Z,98755.54
2022-10-24T12:47:49.992Z,98759.56
2022-10-24T12:50:53.897Z,98758.00
2022-10-24T12:53:38.765Z,98761.36
2022-10-24T12:56:13.701Z,98759.31
2022-10-24T12:58:44.500Z,98758.21
2022-10-24T13:01:27.496Z,98763.15
2022-10-24T13:04:18.397Z,98760.04
2022-10-24T13:07:02.435Z,98758.75
2022-10-24T13:09:45.480Z,98757.61
2022-10-24T13:12:51.394Z,98757.86
2022-10-24T13:15:25.405Z,98759.60
2022-10-24T13:18:13.925Z,98766.80
2022-10-24T13:20:45.179Z,98771.35
2022-10-24T13:23:26.500Z,98778.26
2022-10-24T13:25:59.315Z,98783.73
2022-10-24T13:28:28.369Z,98787.92
2022-10-24T13:31:00.047Z,98794.44
2022-10-24T13:33:31.128Z,98800.67
2022-10-24T13:36:10.190Z,98797.38
2022-10-24T13:38:51.615Z,98796.49
2022-10-24T13:41:35.362Z,98803.77
2022-10-24T13:44:10.283Z,98808.39
2022-10-24T13:46:47.994Z,98813.33
2022-10-24T13:49:27.983Z,98814.42
2022-10-24T13:52:02.098Z,98812.29
2022-10-24T13:54:38.133Z,98810.31
2022-10-24T13:57:26.070Z,98812.67
2022-10-24T13:59:56.900Z,98817.64
2022-10-24T14:02:31.322Z,98819.05
2022-10-24T14:05:01.842Z,98812.55
2022-10-24T14:07:33.850Z,98809.14
2022-10-24T14:10:13.776Z,98802.69
2022-10-24T14:12:42.023Z,98793.52
2022-10-24T14:15:24.929Z,98792.97
2022-10-24T14:17:54.890Z,98788.60
2022-10-24T14:20:26.773Z,98790.70
2022-10-24T14:22:55.036Z,98790.01
2022-10-24T14:25:30.164Z,98785.71
2022-10-24T14:28:01.895Z,98783.60
2022-10-24T14:30:33.560Z,98781.11
2022-10-24T14:33:26.969Z,98784.95
2022-10-24T14:35:58.213Z,98784.89
2022-10-24T14:38:27.836Z,98785.59
2022-10-24T14:41:08.452Z,98788.45
2022-10-24T14:43:42.357Z,98790.99
2022-10-24T14:46:14.263Z,98794.23
2022-10-24T14:48:45.373Z,98793.14
2022-10-24T14:51:39.131Z,98792.33
2022-10-24T14:54:20.434Z,98789.73
2022-10-24T14:56:49.852Z,98790.59
2022-10-24T14:59:45.527Z,98787.17
2022-10-24T15:02:29.003Z,98785.77
2022-10-24T15:05:23.617Z,98785.39
2022-10-24T15:08:21.076Z,98784.98
2022-10-24T15:11:16.438Z,98784.86
2022-10-24T15:13:48.159Z,98779.48
2022-10-24T15:16:35.283Z,98772.41
2022-10-24T15:19:06.138Z,98773.48
2022-10-24T15:21:40.321Z,98777.73
2022-10-24T15:24:27.077Z,98776.01
2022-10-24T15:27:13.312Z,98781.27
2022-10-24T15:30:01.018Z,98778.78
2022-10-24T15:32:30.515Z,98777.46
2022-10-24T15:34:58.235Z,98775.40
2022-10-24T15:37:26.082Z,98773.38
2022-10-24T15:39:54.491Z,98773.73
2022-10-24T15:42:22.888Z,98771.40
2022-10-24T15:44:50.706Z,98769.42
2022-10-24T15:47:24.032Z,98776.08
2022-10-24T15:49:52.388Z,98792.52
2022-10-24T15:52:20.288Z,98805.00
2022-10-24T15:54:48.015Z,98816.67
2022-10-24T15:57:18.532Z,98823.66
2022-10-24T15:59:46.852Z,98827.31
2022-10-24T16:02:21.312Z,98830.67
2022-10-24T16:04:49.812Z,98829.55
2022-10-24T16:07:20.222Z,98829.98
2022-10-24T16:09:48.027Z,98824.52
2022-10-24T16:12:15.879Z,98816.50
2022-10-24T16:14:43.622Z,98815.41
2022-10-24T16:17:12.924Z,98819.98
2022-10-24T16:19:40.694Z,98817.25
2022-10-24T16:22:10.083Z,98807.77
2022-10-24T16:24:38.181Z,98805.04
2022-10-24T16:27:05.938Z,98802.20
2022-10-24T16:29:36.134Z,98802.30
2022-10-24T16:32:04.706Z,98806.34
2022-10-24T16:34:33.053Z,98805.39
2022-10-24T16:37:04.190Z,98806.23
2022-10-24T16:39:34.305Z,98807.85
2022-10-24T16:42:04.722Z,98805.66
2022-10-24T16:44:35.379Z,98809.30
2022-10-24T16:47:04.860Z,98813.38
2022-10-24T16:49:33.169Z,98813.68
2022-10-24T16:52:01.021Z,98813.98
2022-10-24T16:54:28.793Z,98813.35
2022-10-24T16:56:56.501Z,98813.39
2022-10-24T16:59:24.423Z,98823.07
2022-10-24T17:01:52.368Z,98830.98
2022-10-24T17:04:23.826Z,98821.40
2022-10-24T17:06:51.634Z,98822.51
2022-10-24T17:09:21.989Z,98826.56
2022-10-24T17:11:51.103Z,98840.95
2022-10-24T17:14:20.489Z,98857.45
2022-10-24T17:16:48.239Z,98868.30
2022-10-24T17:19:17.256Z,98873.16
2022-10-24T17:21:51.627Z,98878.88
2022-10-24T17:24:23.160Z,98878.80
2022-10-24T17:26:52.290Z,98873.35
2022-10-24T17:29:28.983Z,98865.93
2022-10-24T17:31:58.125Z,98855.19
2022-10-24T17:34:27.388Z,98852.73
2022-10-24T17:37:05.409Z,98861.40
2022-10-24T17:39:48.924Z,98868.09
2022-10-24T17:42:28.916Z,98877.53
2022-10-24T17:45:09.649Z,98883.10
2022-10-24T17:50:20.756Z,98876.98
2022-10-24T17:52:51.482Z,98868.11
2022-10-24T17:58:12.172Z,98861.41
2022-10-24T18:00:42.296Z,98866.35
2022-10-24T18:03:11.142Z,98869.22
2022-10-24T18:05:40.922Z,98870.48
2022-10-24T18:08:11.319Z,98868.84
2022-10-24T18:10:40.624Z,98865.57
2022-10-24T18:13:10.885Z,98863.02
2022-10-24T18:15:38.749Z,98865.05
2022-10-24T18:18:07.276Z,98869.94
2022-10-24T18:20:35.921Z,98872.55
2022-10-24T18:23:04.305Z,98868.65
2022-10-24T18:25:32.034Z,98872.36
2022-10-24T18:28:00.216Z,98879.75
2022-10-24T18:30:28.433Z,98880.95
2022-10-24T18:32:57.489Z,98879.08
2022-10-24T18:35:28.130Z,98884.02
2022-10-24T18:37:56.572Z,98885.09
2022-10-24T18:40:24.645Z,98885.48
2022-10-24T18:43:07.524Z,98881.86
2022-10-24T18:45:37.211Z,98884.44
2022-10-24T18:48:05.641Z,98886.35
2022-10-24T18:50:33.727Z,98885.09
2022-10-24T18:53:06.861Z,98885.06
2022-10-24T18:55:36.375Z,98887.30
2022-10-24T18:58:12.841Z,98891.48
2022-10-24T19:00:43.388Z,98893.59
2022-10-24T19:03:40.426Z,98900.96
2022-10-24T19:06:25.902Z,98902.05
2022-10-24T19:08:54.041Z,98907.59
2022-10-24T19:11:24.261Z,98901.92
2022-10-24T19:13:52.278Z,98895.58
2022-10-24T19:16:27.382Z,98890.79
2022-10-24T19:19:00.084Z,98878.75
2022-10-24T19:21:28.558Z,98880.63
2022-10-24T19:23:56.308Z,98881.59
2022-10-24T19:26:25.506Z,98875.52
2022-10-24T19:28:53.401Z,98870.04
2022-10-24T19:31:22.332Z,98869.63
2022-10-24T19:33:53.349Z,98868.58
2022-10-24T19:36:21.496Z,98866.77
2022-10-24T19:38:55.823Z,98866.17
2022-10-24T19:41:24.212Z,98865.65
2022-10-24T19:43:52.161Z,98868.51
2022-10-24T19:46:20.688Z,98870.96
2022-10-24T19:48:49.573Z,98876.36
2022-10-24T19:51:21.133Z,98879.61
2022-10-24T19:53:49.811Z,98881.33
2022-10-24T19:56:25.161Z,98881.13
2022-10-24T19:58:54.795Z,98884.93
2022-10-24T20:01:25.123Z,98885.80
2022-10-24T20:03:55.656Z,98892.89
2022-10-24T20:06:25.238Z,98889.17
2022-10-24T20:08:53.541Z,98893.16
2022-10-24T20:11:24.084Z,98893.58
2022-10-24T20:13:53.540Z,98892.89
2022-10-24T20:16:21.387Z,98894.80
2022-10-24T20:18:49.972Z,98899.15
2022-10-24T20:21:19.017Z,98901.13
2022-10-24T20:23:48.516Z,98895.21
2022-10-24T20:26:22.990Z,98887.92
2022-10-24T20:28:54.502Z,98888.23
2022-10-24T20:31:28.702Z,98886.95
2022-10-24T20:34:05.014Z,98889.00
2022-10-24T20:36:38.215Z,98894.55
2022-10-24T20:39:07.790Z,98900.40
2022-10-24T20:41:36.569Z,98902.12
2022-10-24T20:44:07.840Z,98904.64
2022-10-24T20:46:36.358Z,98910.38
2022-10-24T20:49:05.335Z,98914.67
2022-10-24T20:51:35.578Z,98917.50
2022-10-24T20:54:07.603Z,98916.52
2022-10-24T20:56:41.989Z,98918.56
2022-10-24T20:59:13.486Z,98912.35
2022-10-24T21:01:41.644Z,98911.86
2022-10-24T21:04:09.969Z,98914.19
2022-10-24T21:06:37.804Z,98916.48
2022-10-24T21:09:07.996Z,98913.92
2022-10-24T21:11:39.244Z,98914.51
2022-10-24T21:14:12.457Z,98919.55
2022-10-24T21:16:42.011Z,98921.88
2022-10-24T21:19:10.875Z,98917.83
2022-10-24T21:21:40.175Z,98917.70
2022-10-24T21:24:17.022Z,98923.95
2022-10-24T21:26:45.934Z,98927.75
2022-10-24T21:29:32.251Z,98931.92
2022-10-24T21:32:02.085Z,98929.21
2022-10-24T21:34:34.406Z,98931.29
2022-10-24T21:37:05.328Z,98930.65
2022-10-24T21:39:34.625Z,98933.13
2022-10-24T21:42:05.936Z,98936.14
2022-10-24T21:44:36.125Z,98934.70
2022-10-24T21:47:07.111Z,98930.83
2022-10-24T21:49:36.067Z,98929.71
2022-10-24T21:52:04.994Z,98930.66
2022-10-24T21:54:33.425Z,98931.95
2022-10-24T21:57:03.075Z,98928.77
2022-10-24T21:59:31.850Z,98930.20
2022-10-24T22:02:01.227Z,98927.05
2022-10-24T22:04:30.450Z,98927.72
2022-10-24T22:06:59.508Z,98929.27
2022-10-24T22:09:30.552Z,98932.23
2022-10-24T22:11:59.662Z,98927.95
2022-10-24T22:14:28.341Z,98927.84
2022-10-24T22:16:57.266Z,98933.06
2022-10-24T22:19:27.019Z,98932.55
2022-10-24T22:21:56.437Z,98931.88
2022-10-24T22:24:25.045Z,98932.89
2022-10-24T22:26:54.099Z,98939.55
2022-10-24T22:29:24.732Z,98938.70
2022-10-24T22:31:55.001Z,98945.33
2022-10-24T22:34:25.397Z,98943.64
2022-10-24T22:37:27.946Z,98940.74
2022-10-24T22:39:57.735Z,98942.52
2022-10-24T22:42:27.499Z,98939.17
2022-10-24T22:44:58.273Z,98933.65
2022-10-24T22:47:34.058Z,98937.11
2022-10-24T22:50:15.196Z,98937.83
2022-10-24T22:52:45.969Z,98933.99
2022-10-24T22:55:24.372Z,98933.73
2022-10-24T22:57:56.031Z,98938.83
2022-10-24T23:00:26.136Z,98942.65
2022-10-24T23:03:07.310Z,98941.45
2022-10-24T23:08:39.533Z,98952.50
2022-10-24T23:11:13.741Z,98955.20
2022-10-24T23:13:44.408Z,98960.76
2022-10-24T23:16:26.112Z,98965.67
2022-10-24T23:18:56.390Z,98962.46
2022-10-24T23:21:37.927Z,98960.64
2022-10-24T23:24:17.042Z,98955.66
2022-10-24T23:27:19.432Z,98957.82
2022-10-24T23:29:50.337Z,98958.08
2022-10-24T23:32:24.070Z,98956.77
2022-10-24T23:34:54.551Z,98959.51
2022-10-24T23:37:34.962Z,98961.73
2022-10-24T23:40:23.368Z,98966.34
2022-10-24T23:42:54.985Z,98964.73
2022-10-24T23:45:27.341Z,98962.67
2022-10-24T23:48:15.848Z,98967.65
2022-10-24T23:51:02.109Z,98966.51
2022-10-24T23:53:55.941Z,98962.55
2022-10-24T23:56:28.696Z,98961.13
2022-10-24T23:58:58.255Z,98963.98
